Terminal Aerodrome Forecast
Issued by NWS St Louis, MO

Home | Current Version | Previous Version | Text Only | Print | Product List | Glossary On
Versions: 1 2 3 4 5 6 7 8 9 10 11 12 13 14 15 16 17 18 19 20 21 22
000
FTUS43 KLSX 292322
TAFCOU
TAF
KCOU 292322Z 3000/3024 24007KT P6SM BKN040
     FM300100 VRB03KT P6SM SCT050
     FM301100 VRB03KT 3SM BR SCT009 SCT030
     FM301500 17006KT P6SM SCT035=

USA.gov is the U.S. government's official web portal to all federal, state and local government web resources and services.